Time,TemperatureF,DewpointF,PressureIn,WindDirection,WindDirectionDegrees,WindSpeedMPH,WindSpeedGustMPH,Humidity,HourlyPrecipIn,Conditions,Clouds,dailyrainin,SoftwareType,DateUTC
2013-05-23 00:02:00,51.0,49.0,-100.00,North,5,4.0,14.0,93,-99.99,,,-99.99,,2013-05-23 05:02:00,
2013-05-23 00:11:00,51.0,49.0,-100.00,North,5,4.0,14.0,93,-99.99,,,-99.99,,2013-05-23 05:11:00,
2013-05-23 00:22:00,51.0,49.0,-100.00,North,5,4.0,14.0,93,-99.99,,,-99.99,,2013-05-23 05:22:00,
2013-05-23 00:52:00,51.0,49.0,-100.00,NE,50,2.0,12.0,93,-99.99,,,-99.99,,2013-05-23 05:52:00,
2013-05-23 01:02:00,51.0,49.0,-100.00,NE,50,2.0,12.0,93,-99.99,,,-99.99,,2013-05-23 06:02:00,
2013-05-23 01:12:00,51.0,49.0,-100.00,NE,50,2.0,12.0,93,-99.99,,,-99.99,,2013-05-23 06:12:00,
2013-05-23 01:21:00,51.0,49.0,-100.00,NE,50,2.0,12.0,93,-99.99,,,-99.99,,2013-05-23 06:21:00,
2013-05-23 01:52:00,51.0,49.0,-100.00,North,5,4.0,12.0,92,-99.99,,,-99.99,,2013-05-23 06:52:00,
2013-05-23 02:02:00,51.0,49.0,-100.00,North,5,4.0,12.0,92,-99.99,,,-99.99,,2013-05-23 07:02:00,
2013-05-23 02:11:00,51.0,49.0,-100.00,North,5,4.0,12.0,92,-99.99,,,-99.99,,2013-05-23 07:11:00,
2013-05-23 02:21:00,51.0,49.0,-100.00,North,5,4.0,12.0,92,-99.99,,,-99.99,,2013-05-23 07:21:00,
2013-05-23 02:59:00,50.0,48.0,-100.00,North,5,3.0,17.0,92,-99.99,,,-99.99,,2013-05-23 07:59:00,
2013-05-23 03:11:00,50.0,48.0,-100.00,North,5,3.0,17.0,92,-99.99,,,-99.99,,2013-05-23 08:11:00,
2013-05-23 03:22:00,50.0,48.0,-100.00,North,5,3.0,17.0,92,-99.99,,,-99.99,,2013-05-23 08:22:00,
2013-05-23 03:52:00,50.0,48.0,-100.00,North,5,6.0,14.0,92,-99.99,,,-99.99,,2013-05-23 08:52:00,
2013-05-23 04:01:00,50.0,48.0,-100.00,North,5,6.0,14.0,92,-99.99,,,-99.99,,2013-05-23 09:01:00,
2013-05-23 04:11:00,50.0,48.0,-100.00,North,5,6.0,14.0,92,-99.99,,,-99.99,,2013-05-23 09:11:00,
2013-05-23 04:21:00,50.0,48.0,-100.00,North,5,6.0,14.0,92,-99.99,,,-99.99,,2013-05-23 09:21:00,
2013-05-23 04:53:00,49.0,47.0,-100.00,North,5,3.0,17.0,92,-99.99,,,-99.99,,2013-05-23 09:53:00,
2013-05-23 05:02:00,49.0,47.0,-100.00,North,5,3.0,17.0,92,-99.99,,,-99.99,,2013-05-23 10:02:00,
2013-05-23 05:12:00,49.0,47.0,-100.00,North,5,3.0,17.0,92,-99.99,,,-99.99,,2013-05-23 10:12:00,
2013-05-23 05:22:00,49.0,47.0,-100.00,North,5,3.0,17.0,92,-99.99,,,-99.99,,2013-05-23 10:22:00,
2013-05-23 05:52:00,48.0,45.0,-100.00,North,0,7.0,10.0,91,-99.99,,,-99.99,,2013-05-23 10:52:00,
2013-05-23 06:02:00,48.0,45.0,-100.00,North,0,7.0,10.0,91,-99.99,,,-99.99,,2013-05-23 11:02:00,
2013-05-23 06:11:00,48.0,45.0,-100.00,North,0,7.0,10.0,91,-99.99,,,-99.99,,2013-05-23 11:11:00,
2013-05-23 06:22:00,48.0,45.0,-100.00,North,0,7.0,10.0,91,-99.99,,,-99.99,,2013-05-23 11:22:00,
2013-05-23 06:52:00,46.0,43.0,-100.00,NNE,20,4.0,13.0,88,-99.99,,,-99.99,,2013-05-23 11:52:00,
2013-05-23 07:01:00,46.0,43.0,-100.00,NNE,20,4.0,13.0,88,-99.99,,,-99.99,,2013-05-23 12:01:00,
2013-05-23 07:12:00,46.0,43.0,-100.00,NNE,20,4.0,13.0,88,-99.99,,,-99.99,,2013-05-23 12:12:00,
2013-05-23 07:21:00,46.0,43.0,-100.00,NNE,20,4.0,13.0,88,-99.99,,,-99.99,,2013-05-23 12:21:00,
2013-05-23 07:52:00,45.0,40.0,-100.00,North,0,11.0,17.0,84,-99.99,,,-99.99,,2013-05-23 12:52:00,
2013-05-23 08:01:00,45.0,40.0,-100.00,North,0,11.0,17.0,84,-99.99,,,-99.99,,2013-05-23 13:01:00,
2013-05-23 08:11:00,45.0,40.0,-100.00,North,0,11.0,17.0,84,-99.99,,,-99.99,,2013-05-23 13:11:00,
2013-05-23 08:22:00,45.0,40.0,-100.00,North,0,11.0,17.0,84,-99.99,,,-99.99,,2013-05-23 13:22:00,
2013-05-23 08:52:00,46.0,40.0,-100.00,North,355,7.0,13.0,80,-99.99,,,-99.99,,2013-05-23 13:52:00,
2013-05-23 09:02:00,46.0,40.0,-100.00,North,355,7.0,13.0,80,-99.99,,,-99.99,,2013-05-23 14:02:00,
2013-05-23 09:11:00,46.0,40.0,-100.00,North,355,7.0,13.0,80,-99.99,,,-99.99,,2013-05-23 14:11:00,
2013-05-23 09:21:00,46.0,40.0,-100.00,North,355,7.0,13.0,80,-99.99,,,-99.99,,2013-05-23 14:21:00,
2013-05-23 09:52:00,45.0,36.0,-100.00,North,0,7.0,16.0,72,-99.99,,,-99.99,,2013-05-23 14:52:00,
2013-05-23 10:01:00,45.0,36.0,-100.00,North,0,7.0,16.0,72,-99.99,,,-99.99,,2013-05-23 15:01:00,
2013-05-23 10:11:00,45.0,36.0,-100.00,North,0,7.0,16.0,72,-99.99,,,-99.99,,2013-05-23 15:11:00,
2013-05-23 10:21:00,45.0,36.0,-100.00,North,0,7.0,16.0,72,-99.99,,,-99.99,,2013-05-23 15:21:00,
2013-05-23 11:52:00,53.0,36.0,-100.00,North,0,11.0,17.0,53,-99.99,,,-99.99,,2013-05-23 16:52:00,
2013-05-23 12:03:00,53.0,36.0,-100.00,North,0,11.0,17.0,53,-99.99,,,-99.99,,2013-05-23 17:03:00,
2013-05-23 12:11:00,53.0,36.0,-100.00,North,0,11.0,17.0,53,-99.99,,,-99.99,,2013-05-23 17:11:00,
2013-05-23 12:23:00,53.0,36.0,-100.00,North,0,11.0,17.0,53,-99.99,,,-99.99,,2013-05-23 17:23:00,
2013-05-23 12:53:00,-999.0,-99.9,-100.00,North,0,0.0,0.0,99,-99.99,,,-99.99,,2013-05-23 17:53:00,
2013-05-23 13:02:00,-999.0,-99.9,-100.00,North,0,0.0,0.0,99,-99.99,,,-99.99,,2013-05-23 18:02:00,
2013-05-23 13:12:00,-999.0,-99.9,-100.00,North,0,0.0,0.0,99,-99.99,,,-99.99,,2013-05-23 18:12:00,
2013-05-23 13:22:00,-999.0,-99.9,-100.00,North,0,0.0,0.0,99,-99.99,,,-99.99,,2013-05-23 18:22:00,
2013-05-23 13:52:00,-999.0,-99.9,-100.00,North,0,0.0,0.0,99,-99.99,,,-99.99,,2013-05-23 18:52:00,
2013-05-23 14:02:00,-999.0,-99.9,-100.00,North,0,0.0,0.0,99,-99.99,,,-99.99,,2013-05-23 19:02:00,
2013-05-23 14:11:00,-999.0,-99.9,-100.00,North,0,0.0,0.0,99,-99.99,,,-99.99,,2013-05-23 19:11:00,
2013-05-23 14:22:00,-999.0,-99.9,-100.00,North,0,0.0,0.0,99,-99.99,,,-99.99,,2013-05-23 19:22:00,
2013-05-23 15:52:00,-999.0,-99.9,-100.00,North,0,0.0,0.0,99,-99.99,,,-99.99,,2013-05-23 20:52:00,
2013-05-23 16:01:00,-999.0,-99.9,-100.00,North,0,0.0,0.0,99,-99.99,,,-99.99,,2013-05-23 21:01:00,
2013-05-23 16:11:00,-999.0,-99.9,-100.00,North,0,0.0,0.0,99,-99.99,,,-99.99,,2013-05-23 21:11:00,
2013-05-23 16:22:00,-999.0,-99.9,-100.00,North,0,0.0,0.0,99,-99.99,,,-99.99,,2013-05-23 21:22:00,
2013-05-23 16:53:00,-999.0,-99.9,-100.00,North,0,0.0,0.0,99,-99.99,,,-99.99,,2013-05-23 21:53:00,
2013-05-23 17:03:00,-999.0,-99.9,-100.00,North,0,0.0,0.0,99,-99.99,,,-99.99,,2013-05-23 22:03:00,
2013-05-23 17:12:00,-999.0,-99.9,-100.00,North,0,0.0,0.0,99,-99.99,,,-99.99,,2013-05-23 22:12:00,
2013-05-23 17:23:00,-999.0,-99.9,-100.00,North,0,0.0,0.0,99,-99.99,,,-99.99,,2013-05-23 22:23:00,
2013-05-23 17:52:00,-999.0,-99.9,-100.00,North,0,0.0,0.0,99,-99.99,,,-99.99,,2013-05-23 22:52:00,
2013-05-23 18:02:00,-999.0,-99.9,-100.00,North,0,0.0,0.0,99,-99.99,,,-99.99,,2013-05-23 23:02:00,
2013-05-23 18:12:00,-999.0,-99.9,-100.00,North,0,0.0,0.0,99,-99.99,,,-99.99,,2013-05-23 23:12:00,
2013-05-23 18:22:00,-999.0,-99.9,-100.00,North,0,0.0,0.0,99,-99.99,,,-99.99,,2013-05-23 23:22:00,
2013-05-23 18:52:00,-999.0,-99.9,-100.00,North,0,0.0,0.0,99,-99.99,,,-99.99,,2013-05-23 23:52:00,
2013-05-23 19:01:00,-999.0,-99.9,-100.00,North,0,0.0,0.0,99,-99.99,,,-99.99,,2013-05-24 00:01:00,
2013-05-23 19:12:00,-999.0,-99.9,-100.00,North,0,0.0,0.0,99,-99.99,,,-99.99,,2013-05-24 00:12:00,
2013-05-23 19:22:00,-999.0,-99.9,-100.00,North,0,0.0,0.0,99,-99.99,,,-99.99,,2013-05-24 00:22:00,
2013-05-23 19:52:00,-999.0,-99.9,-100.00,North,0,0.0,0.0,99,-99.99,,,-99.99,,2013-05-24 00:52:00,
2013-05-23 20:01:00,-999.0,-99.9,-100.00,North,0,0.0,0.0,99,-99.99,,,-99.99,,2013-05-24 01:01:00,
2013-05-23 20:12:00,-999.0,-99.9,-100.00,North,0,0.0,0.0,99,-99.99,,,-99.99,,2013-05-24 01:12:00,
2013-05-23 20:22:00,-999.0,-99.9,-100.00,North,0,0.0,0.0,99,-99.99,,,-99.99,,2013-05-24 01:22:00,
2013-05-23 23:53:00,38.0,34.0,-100.00,WSW,240,0.0,1.0,86,-99.99,,,-99.99,,2013-05-24 04:53:00,